sensor_id;sensor_type;location;lat;lon;timestamp;temperature;humidity
51863;DHT22;37900;52.996;6.278;2023-01-06T00:00:21;16.50;96.40
51863;DHT22;37900;52.996;6.278;2023-01-06T00:02:47;16.50;96.40
51863;DHT22;37900;52.996;6.278;2023-01-06T00:05:13;16.50;96.40
51863;DHT22;37900;52.996;6.278;2023-01-06T00:07:39;16.50;96.30
51863;DHT22;37900;52.996;6.278;2023-01-06T00:10:06;16.50;96.30
51863;DHT22;37900;52.996;6.278;2023-01-06T00:12:32;16.50;96.30
51863;DHT22;37900;52.996;6.278;2023-01-06T00:14:58;16.50;96.30
51863;DHT22;37900;52.996;6.278;2023-01-06T00:17:24;16.50;96.30
51863;DHT22;37900;52.996;6.278;2023-01-06T00:19:49;16.50;96.20
51863;DHT22;37900;52.996;6.278;2023-01-06T00:22:16;16.50;96.20
51863;DHT22;37900;52.996;6.278;2023-01-06T00:24:42;16.50;96.20
51863;DHT22;37900;52.996;6.278;2023-01-06T00:27:08;16.50;96.10
51863;DHT22;37900;52.996;6.278;2023-01-06T00:29:33;16.50;96.10
51863;DHT22;37900;52.996;6.278;2023-01-06T00:32:00;16.50;96.10
51863;DHT22;37900;52.996;6.278;2023-01-06T00:34:27;16.50;96.10
51863;DHT22;37900;52.996;6.278;2023-01-06T00:36:53;16.50;96.00
51863;DHT22;37900;52.996;6.278;2023-01-06T00:39:19;16.50;96.00
51863;DHT22;37900;52.996;6.278;2023-01-06T00:41:44;16.40;96.00
51863;DHT22;37900;52.996;6.278;2023-01-06T00:44:37;16.50;96.00
51863;DHT22;37900;52.996;6.278;2023-01-06T00:47:08;16.40;95.90
51863;DHT22;37900;52.996;6.278;2023-01-06T00:49:33;16.40;95.90
51863;DHT22;37900;52.996;6.278;2023-01-06T00:51:59;16.40;95.90
51863;DHT22;37900;52.996;6.278;2023-01-06T00:54:25;16.40;95.90
51863;DHT22;37900;52.996;6.278;2023-01-06T00:56:52;16.40;95.90
51863;DHT22;37900;52.996;6.278;2023-01-06T00:59:22;16.40;95.80
51863;DHT22;37900;52.996;6.278;2023-01-06T01:01:50;16.40;95.80
51863;DHT22;37900;52.996;6.278;2023-01-06T01:04:17;16.40;95.80
51863;DHT22;37900;52.996;6.278;2023-01-06T01:06:44;16.40;95.80
51863;DHT22;37900;52.996;6.278;2023-01-06T01:09:18;16.40;96.00
51863;DHT22;37900;52.996;6.278;2023-01-06T01:11:46;16.40;95.70
51863;DHT22;37900;52.996;6.278;2023-01-06T01:14:30;16.40;95.70
51863;DHT22;37900;52.996;6.278;2023-01-06T01:16:56;16.40;95.70
51863;DHT22;37900;52.996;6.278;2023-01-06T01:19:23;16.40;95.70
51863;DHT22;37900;52.996;6.278;2023-01-06T01:21:49;16.40;95.70
51863;DHT22;37900;52.996;6.278;2023-01-06T01:24:15;16.40;95.60
51863;DHT22;37900;52.996;6.278;2023-01-06T01:26:41;16.40;95.60
51863;DHT22;37900;52.996;6.278;2023-01-06T01:29:10;16.40;95.60
51863;DHT22;37900;52.996;6.278;2023-01-06T01:31:36;16.40;95.60
51863;DHT22;37900;52.996;6.278;2023-01-06T01:34:02;16.40;95.60
51863;DHT22;37900;52.996;6.278;2023-01-06T01:36:28;16.30;95.50
51863;DHT22;37900;52.996;6.278;2023-01-06T01:38:58;16.40;95.50
51863;DHT22;37900;52.996;6.278;2023-01-06T01:41:25;16.40;95.50
51863;DHT22;37900;52.996;6.278;2023-01-06T01:43:58;16.40;95.50
51863;DHT22;37900;52.996;6.278;2023-01-06T01:46:29;16.40;95.50
51863;DHT22;37900;52.996;6.278;2023-01-06T01:49:17;16.40;95.50
51863;DHT22;37900;52.996;6.278;2023-01-06T01:51:47;16.30;95.40
51863;DHT22;37900;52.996;6.278;2023-01-06T01:54:19;16.40;95.40
51863;DHT22;37900;52.996;6.278;2023-01-06T01:56:48;16.40;95.40
51863;DHT22;37900;52.996;6.278;2023-01-06T01:59:20;16.40;95.40
51863;DHT22;37900;52.996;6.278;2023-01-06T02:01:47;16.40;95.40
51863;DHT22;37900;52.996;6.278;2023-01-06T02:04:14;16.40;95.40
51863;DHT22;37900;52.996;6.278;2023-01-06T02:06:41;16.40;95.40
51863;DHT22;37900;52.996;6.278;2023-01-06T02:11:37;16.30;95.30
51863;DHT22;37900;52.996;6.278;2023-01-06T02:14:08;16.30;95.30
51863;DHT22;37900;52.996;6.278;2023-01-06T02:33:57;16.30;95.10
51863;DHT22;37900;52.996;6.278;2023-01-06T02:42:01;16.30;95.10
51863;DHT22;37900;52.996;6.278;2023-01-06T02:44:56;16.30;95.10
51863;DHT22;37900;52.996;6.278;2023-01-06T02:50:43;16.30;95.10
51863;DHT22;37900;52.996;6.278;2023-01-06T02:53:21;16.30;95.00
51863;DHT22;37900;52.996;6.278;2023-01-06T02:55:50;16.30;95.10
51863;DHT22;37900;52.996;6.278;2023-01-06T02:58:25;16.30;95.10
51863;DHT22;37900;52.996;6.278;2023-01-06T03:01:12;16.30;95.10
51863;DHT22;37900;52.996;6.278;2023-01-06T03:03:41;16.30;95.00
51863;DHT22;37900;52.996;6.278;2023-01-06T03:06:20;16.30;95.00
51863;DHT22;37900;52.996;6.278;2023-01-06T03:08:48;16.20;95.00
51863;DHT22;37900;52.996;6.278;2023-01-06T03:11:14;16.30;95.10
51863;DHT22;37900;52.996;6.278;2023-01-06T03:16:09;16.30;95.00
51863;DHT22;37900;52.996;6.278;2023-01-06T03:18:37;16.30;95.00
51863;DHT22;37900;52.996;6.278;2023-01-06T03:21:13;16.20;95.00
51863;DHT22;37900;52.996;6.278;2023-01-06T03:23:40;16.30;95.00
51863;DHT22;37900;52.996;6.278;2023-01-06T03:26:08;16.30;95.00
51863;DHT22;37900;52.996;6.278;2023-01-06T03:28:34;16.30;95.00
51863;DHT22;37900;52.996;6.278;2023-01-06T03:31:31;16.30;94.90
51863;DHT22;37900;52.996;6.278;2023-01-06T03:37:00;16.30;94.90
51863;DHT22;37900;52.996;6.278;2023-01-06T03:40:27;16.20;94.90
51863;DHT22;37900;52.996;6.278;2023-01-06T03:42:43;16.30;94.90
51863;DHT22;37900;52.996;6.278;2023-01-06T03:54:01;16.30;94.80
51863;DHT22;37900;52.996;6.278;2023-01-06T03:59:19;16.30;94.80
51863;DHT22;37900;52.996;6.278;2023-01-06T04:01:46;16.20;94.80
51863;DHT22;37900;52.996;6.278;2023-01-06T04:04:12;16.20;94.80
51863;DHT22;37900;52.996;6.278;2023-01-06T04:06:40;16.20;94.70
51863;DHT22;37900;52.996;6.278;2023-01-06T04:09:06;16.20;94.70
51863;DHT22;37900;52.996;6.278;2023-01-06T04:11:31;16.20;94.70
51863;DHT22;37900;52.996;6.278;2023-01-06T04:14:16;16.20;94.70
51863;DHT22;37900;52.996;6.278;2023-01-06T04:16:41;16.20;94.70
51863;DHT22;37900;52.996;6.278;2023-01-06T04:19:07;16.20;94.70
51863;DHT22;37900;52.996;6.278;2023-01-06T04:21:33;16.20;94.70
51863;DHT22;37900;52.996;6.278;2023-01-06T04:23:58;16.20;94.90
51863;DHT22;37900;52.996;6.278;2023-01-06T04:26:24;16.20;94.70
51863;DHT22;37900;52.996;6.278;2023-01-06T04:28:51;16.20;94.70
51863;DHT22;37900;52.996;6.278;2023-01-06T04:31:17;16.20;94.60
51863;DHT22;37900;52.996;6.278;2023-01-06T04:33:42;16.20;94.60
51863;DHT22;37900;52.996;6.278;2023-01-06T04:36:08;16.20;94.60
51863;DHT22;37900;52.996;6.278;2023-01-06T04:38:34;16.20;94.60
51863;DHT22;37900;52.996;6.278;2023-01-06T04:41:00;16.20;94.60
51863;DHT22;37900;52.996;6.278;2023-01-06T04:43:26;16.20;94.60
51863;DHT22;37900;52.996;6.278;2023-01-06T04:45:51;16.20;94.60
51863;DHT22;37900;52.996;6.278;2023-01-06T04:48:17;16.20;94.60
51863;DHT22;37900;52.996;6.278;2023-01-06T04:50:43;16.20;94.60
51863;DHT22;37900;52.996;6.278;2023-01-06T04:53:11;16.20;94.60
51863;DHT22;37900;52.996;6.278;2023-01-06T04:55:37;16.20;94.50
51863;DHT22;37900;52.996;6.278;2023-01-06T04:58:03;16.20;94.50
51863;DHT22;37900;52.996;6.278;2023-01-06T05:00:29;16.20;94.50
51863;DHT22;37900;52.996;6.278;2023-01-06T05:02:55;16.20;94.50
51863;DHT22;37900;52.996;6.278;2023-01-06T05:05:21;16.10;94.50
51863;DHT22;37900;52.996;6.278;2023-01-06T05:07:46;16.20;94.50
51863;DHT22;37900;52.996;6.278;2023-01-06T05:10:12;16.20;94.50
51863;DHT22;37900;52.996;6.278;2023-01-06T05:12:38;16.20;94.50
51863;DHT22;37900;52.996;6.278;2023-01-06T05:15:04;16.20;94.50
51863;DHT22;37900;52.996;6.278;2023-01-06T05:17:29;16.20;94.70
51863;DHT22;37900;52.996;6.278;2023-01-06T05:19:55;16.20;94.50
51863;DHT22;37900;52.996;6.278;2023-01-06T05:22:21;16.20;94.40
51863;DHT22;37900;52.996;6.278;2023-01-06T05:24:47;16.10;94.40
51863;DHT22;37900;52.996;6.278;2023-01-06T05:27:13;16.20;94.40
51863;DHT22;37900;52.996;6.278;2023-01-06T05:29:38;16.20;94.40
51863;DHT22;37900;52.996;6.278;2023-01-06T05:32:04;16.20;94.40
51863;DHT22;37900;52.996;6.278;2023-01-06T05:34:30;16.20;94.40
51863;DHT22;37900;52.996;6.278;2023-01-06T05:36:56;16.20;94.40
51863;DHT22;37900;52.996;6.278;2023-01-06T05:39:22;16.10;94.40
51863;DHT22;37900;52.996;6.278;2023-01-06T05:41:48;16.10;94.30
51863;DHT22;37900;52.996;6.278;2023-01-06T05:44:13;16.20;94.40
51863;DHT22;37900;52.996;6.278;2023-01-06T05:46:39;16.20;94.40
51863;DHT22;37900;52.996;6.278;2023-01-06T05:49:05;16.20;94.30
51863;DHT22;37900;52.996;6.278;2023-01-06T05:51:31;16.10;94.30
51863;DHT22;37900;52.996;6.278;2023-01-06T05:53:56;16.10;94.30
51863;DHT22;37900;52.996;6.278;2023-01-06T05:56:23;16.10;94.30
51863;DHT22;37900;52.996;6.278;2023-01-06T05:58:51;16.10;94.30
51863;DHT22;37900;52.996;6.278;2023-01-06T06:01:25;16.10;94.30
51863;DHT22;37900;52.996;6.278;2023-01-06T06:03:51;16.10;94.30
51863;DHT22;37900;52.996;6.278;2023-01-06T06:06:18;16.10;94.30
51863;DHT22;37900;52.996;6.278;2023-01-06T06:08:44;16.10;94.20
51863;DHT22;37900;52.996;6.278;2023-01-06T06:11:12;16.10;94.30
51863;DHT22;37900;52.996;6.278;2023-01-06T06:13:43;16.10;94.20
51863;DHT22;37900;52.996;6.278;2023-01-06T06:16:11;16.10;94.20
51863;DHT22;37900;52.996;6.278;2023-01-06T06:18:38;16.10;94.20
51863;DHT22;37900;52.996;6.278;2023-01-06T06:21:08;16.10;94.20
51863;DHT22;37900;52.996;6.278;2023-01-06T06:23:34;16.10;94.20
51863;DHT22;37900;52.996;6.278;2023-01-06T06:26:01;16.10;94.20
51863;DHT22;37900;52.996;6.278;2023-01-06T06:28:29;16.10;94.20
51863;DHT22;37900;52.996;6.278;2023-01-06T06:31:12;16.10;94.20
51863;DHT22;37900;52.996;6.278;2023-01-06T06:33:38;16.10;94.20
51863;DHT22;37900;52.996;6.278;2023-01-06T06:36:05;16.10;94.20
51863;DHT22;37900;52.996;6.278;2023-01-06T06:38:31;16.10;94.10
51863;DHT22;37900;52.996;6.278;2023-01-06T06:40:57;16.10;94.10
51863;DHT22;37900;52.996;6.278;2023-01-06T06:43:23;16.10;94.10
51863;DHT22;37900;52.996;6.278;2023-01-06T06:45:48;16.10;94.10
51863;DHT22;37900;52.996;6.278;2023-01-06T06:48:15;16.10;94.10
51863;DHT22;37900;52.996;6.278;2023-01-06T06:50:40;16.10;94.10
51863;DHT22;37900;52.996;6.278;2023-01-06T06:53:06;16.10;94.10
51863;DHT22;37900;52.996;6.278;2023-01-06T06:55:32;16.10;94.10
51863;DHT22;37900;52.996;6.278;2023-01-06T06:57:58;16.10;94.10
51863;DHT22;37900;52.996;6.278;2023-01-06T07:00:24;16.10;94.10
51863;DHT22;37900;52.996;6.278;2023-01-06T07:02:50;16.10;94.10
51863;DHT22;37900;52.996;6.278;2023-01-06T07:05:17;16.10;94.10
51863;DHT22;37900;52.996;6.278;2023-01-06T07:07:43;16.10;94.10
51863;DHT22;37900;52.996;6.278;2023-01-06T07:10:15;16.10;94.10
51863;DHT22;37900;52.996;6.278;2023-01-06T07:12:41;16.10;94.10
51863;DHT22;37900;52.996;6.278;2023-01-06T07:15:07;16.10;94.10
51863;DHT22;37900;52.996;6.278;2023-01-06T07:17:33;16.10;94.30
51863;DHT22;37900;52.996;6.278;2023-01-06T07:19:59;16.20;94.10
51863;DHT22;37900;52.996;6.278;2023-01-06T07:22:25;16.10;94.00
51863;DHT22;37900;52.996;6.278;2023-01-06T07:24:51;16.10;94.00
51863;DHT22;37900;52.996;6.278;2023-01-06T07:27:16;16.10;94.00
51863;DHT22;37900;52.996;6.278;2023-01-06T07:29:42;16.10;94.00
51863;DHT22;37900;52.996;6.278;2023-01-06T07:32:08;16.00;94.00
51863;DHT22;37900;52.996;6.278;2023-01-06T07:34:34;16.10;94.00
51863;DHT22;37900;52.996;6.278;2023-01-06T07:37:00;16.10;94.00
51863;DHT22;37900;52.996;6.278;2023-01-06T07:39:25;16.10;93.90
51863;DHT22;37900;52.996;6.278;2023-01-06T07:41:51;16.10;93.90
51863;DHT22;37900;52.996;6.278;2023-01-06T07:44:17;16.00;93.90
51863;DHT22;37900;52.996;6.278;2023-01-06T07:46:42;16.10;93.90
51863;DHT22;37900;52.996;6.278;2023-01-06T07:49:08;16.10;93.90
51863;DHT22;37900;52.996;6.278;2023-01-06T07:51:34;16.10;93.90
51863;DHT22;37900;52.996;6.278;2023-01-06T07:54:00;16.10;93.90
51863;DHT22;37900;52.996;6.278;2023-01-06T07:56:26;16.10;93.90
51863;DHT22;37900;52.996;6.278;2023-01-06T07:58:52;16.00;93.80
51863;DHT22;37900;52.996;6.278;2023-01-06T08:01:19;16.00;93.80
51863;DHT22;37900;52.996;6.278;2023-01-06T08:03:45;16.10;93.90
51863;DHT22;37900;52.996;6.278;2023-01-06T08:06:11;16.00;93.80
51863;DHT22;37900;52.996;6.278;2023-01-06T08:08:39;16.00;93.80
51863;DHT22;37900;52.996;6.278;2023-01-06T08:11:06;16.00;93.80
51863;DHT22;37900;52.996;6.278;2023-01-06T08:13:33;16.10;93.90
51863;DHT22;37900;52.996;6.278;2023-01-06T08:16:03;16.10;93.90
51863;DHT22;37900;52.996;6.278;2023-01-06T08:18:28;16.10;94.00
51863;DHT22;37900;52.996;6.278;2023-01-06T08:21:02;16.10;94.10
51863;DHT22;37900;52.996;6.278;2023-01-06T08:23:28;16.10;94.10
51863;DHT22;37900;52.996;6.278;2023-01-06T08:26:21;16.10;94.10
51863;DHT22;37900;52.996;6.278;2023-01-06T08:28:46;16.20;94.10
51863;DHT22;37900;52.996;6.278;2023-01-06T08:31:15;16.20;94.10
51863;DHT22;37900;52.996;6.278;2023-01-06T08:33:41;16.20;94.10
51863;DHT22;37900;52.996;6.278;2023-01-06T08:36:10;16.20;94.20
51863;DHT22;37900;52.996;6.278;2023-01-06T08:38:36;16.20;94.20
51863;DHT22;37900;52.996;6.278;2023-01-06T08:41:03;16.20;94.20
51863;DHT22;37900;52.996;6.278;2023-01-06T08:43:28;16.20;94.30
51863;DHT22;37900;52.996;6.278;2023-01-06T08:46:05;16.20;94.30
51863;DHT22;37900;52.996;6.278;2023-01-06T08:48:32;16.20;94.30
51863;DHT22;37900;52.996;6.278;2023-01-06T08:51:15;16.20;94.40
51863;DHT22;37900;52.996;6.278;2023-01-06T08:53:40;16.20;94.40
51863;DHT22;37900;52.996;6.278;2023-01-06T08:56:20;16.20;94.40
51863;DHT22;37900;52.996;6.278;2023-01-06T08:58:51;16.20;94.50
51863;DHT22;37900;52.996;6.278;2023-01-06T09:01:18;16.20;94.50
51863;DHT22;37900;52.996;6.278;2023-01-06T09:03:44;16.20;94.60
51863;DHT22;37900;52.996;6.278;2023-01-06T09:06:10;16.20;94.60
51863;DHT22;37900;52.996;6.278;2023-01-06T09:08:36;16.20;94.60
51863;DHT22;37900;52.996;6.278;2023-01-06T09:11:07;16.20;94.60
51863;DHT22;37900;52.996;6.278;2023-01-06T09:13:33;16.20;94.60
51863;DHT22;37900;52.996;6.278;2023-01-06T09:15:59;16.20;94.70
51863;DHT22;37900;52.996;6.278;2023-01-06T09:18:25;16.20;94.70
51863;DHT22;37900;52.996;6.278;2023-01-06T09:20:50;16.20;94.80
51863;DHT22;37900;52.996;6.278;2023-01-06T09:23:16;16.20;94.80
51863;DHT22;37900;52.996;6.278;2023-01-06T09:25:42;16.30;95.10
51863;DHT22;37900;52.996;6.278;2023-01-06T09:28:07;16.30;94.90
51863;DHT22;37900;52.996;6.278;2023-01-06T09:30:35;16.30;94.90
51863;DHT22;37900;52.996;6.278;2023-01-06T09:33:01;16.30;94.90
51863;DHT22;37900;52.996;6.278;2023-01-06T09:35:26;16.30;95.10
51863;DHT22;37900;52.996;6.278;2023-01-06T09:37:52;16.30;95.30
51863;DHT22;37900;52.996;6.278;2023-01-06T09:40:24;16.40;95.50
51863;DHT22;37900;52.996;6.278;2023-01-06T09:43:26;16.40;95.70
51863;DHT22;37900;52.996;6.278;2023-01-06T09:45:58;16.40;95.90
51863;DHT22;37900;52.996;6.278;2023-01-06T09:48:39;16.20;95.90
51863;DHT22;37900;52.996;6.278;2023-01-06T09:51:07;16.40;96.00
51863;DHT22;37900;52.996;6.278;2023-01-06T09:53:44;16.40;96.20
51863;DHT22;37900;52.996;6.278;2023-01-06T09:56:15;16.40;96.30
51863;DHT22;37900;52.996;6.278;2023-01-06T09:59:07;16.40;96.40
51863;DHT22;37900;52.996;6.278;2023-01-06T10:01:40;16.40;96.50
51863;DHT22;37900;52.996;6.278;2023-01-06T10:04:15;16.40;96.70
51863;DHT22;37900;52.996;6.278;2023-01-06T10:07:03;16.40;96.80
51863;DHT22;37900;52.996;6.278;2023-01-06T10:18:20;16.50;97.20
51863;DHT22;37900;52.996;6.278;2023-01-06T10:26:05;16.50;97.50
51863;DHT22;37900;52.996;6.278;2023-01-06T10:28:38;16.50;97.50
51863;DHT22;37900;52.996;6.278;2023-01-06T10:31:14;16.50;97.50
51863;DHT22;37900;52.996;6.278;2023-01-06T10:33:50;16.50;97.60
51863;DHT22;37900;52.996;6.278;2023-01-06T10:36:18;16.50;97.70
51863;DHT22;37900;52.996;6.278;2023-01-06T10:38:50;16.50;97.70
51863;DHT22;37900;52.996;6.278;2023-01-06T10:44:14;16.50;97.80
51863;DHT22;37900;52.996;6.278;2023-01-06T10:46:42;16.50;97.90
51863;DHT22;37900;52.996;6.278;2023-01-06T10:49:15;16.60;97.90
51863;DHT22;37900;52.996;6.278;2023-01-06T10:51:43;16.60;98.00
51863;DHT22;37900;52.996;6.278;2023-01-06T10:54:39;16.60;98.00
51863;DHT22;37900;52.996;6.278;2023-01-06T10:57:13;16.60;98.10
51863;DHT22;37900;52.996;6.278;2023-01-06T11:00:17;16.60;98.10
51863;DHT22;37900;52.996;6.278;2023-01-06T11:02:46;16.60;98.10
51863;DHT22;37900;52.996;6.278;2023-01-06T11:05:20;16.60;98.10
51863;DHT22;37900;52.996;6.278;2023-01-06T11:08:06;16.60;98.10
51863;DHT22;37900;52.996;6.278;2023-01-06T11:10:37;16.50;98.00
51863;DHT22;37900;52.996;6.278;2023-01-06T11:13:05;16.50;98.00
51863;DHT22;37900;52.996;6.278;2023-01-06T11:15:38;16.50;98.00
51863;DHT22;37900;52.996;6.278;2023-01-06T11:18:05;16.50;98.00
51863;DHT22;37900;52.996;6.278;2023-01-06T11:20:41;16.50;97.90
51863;DHT22;37900;52.996;6.278;2023-01-06T11:23:20;16.50;97.90
51863;DHT22;37900;52.996;6.278;2023-01-06T11:26:05;16.50;97.90
51863;DHT22;37900;52.996;6.278;2023-01-06T11:28:32;16.50;97.90
51863;DHT22;37900;52.996;6.278;2023-01-06T11:31:05;16.50;97.80
51863;DHT22;37900;52.996;6.278;2023-01-06T11:33:33;16.50;97.90
51863;DHT22;37900;52.996;6.278;2023-01-06T11:36:11;16.50;97.80
51863;DHT22;37900;52.996;6.278;2023-01-06T11:39:11;16.50;97.80
51863;DHT22;37900;52.996;6.278;2023-01-06T11:41:39;16.50;97.80
51863;DHT22;37900;52.996;6.278;2023-01-06T11:50:02;16.50;97.80
51863;DHT22;37900;52.996;6.278;2023-01-06T11:52:32;16.50;97.80
51863;DHT22;37900;52.996;6.278;2023-01-06T11:55:19;16.50;97.80
51863;DHT22;37900;52.996;6.278;2023-01-06T11:58:15;16.50;97.80
51863;DHT22;37900;52.996;6.278;2023-01-06T12:06:33;16.50;97.90
51863;DHT22;37900;52.996;6.278;2023-01-06T12:11:46;16.50;97.80
51863;DHT22;37900;52.996;6.278;2023-01-06T12:14:19;16.40;97.80
51863;DHT22;37900;52.996;6.278;2023-01-06T12:16:48;16.40;97.80
51863;DHT22;37900;52.996;6.278;2023-01-06T12:20:09;16.40;97.80
51863;DHT22;37900;52.996;6.278;2023-01-06T12:22:33;16.40;97.80
51863;DHT22;37900;52.996;6.278;2023-01-06T12:25:00;16.40;97.70
51863;DHT22;37900;52.996;6.278;2023-01-06T12:27:37;16.40;97.70
51863;DHT22;37900;52.996;6.278;2023-01-06T12:30:10;16.40;97.70
51863;DHT22;37900;52.996;6.278;2023-01-06T12:32:40;16.40;97.70
51863;DHT22;37900;52.996;6.278;2023-01-06T12:35:13;16.40;97.70
51863;DHT22;37900;52.996;6.278;2023-01-06T12:37:46;16.40;97.90
51863;DHT22;37900;52.996;6.278;2023-01-06T12:40:29;16.40;97.70
51863;DHT22;37900;52.996;6.278;2023-01-06T12:43:12;16.40;97.60
51863;DHT22;37900;52.996;6.278;2023-01-06T12:46:19;16.40;97.60
51863;DHT22;37900;52.996;6.278;2023-01-06T12:48:51;16.40;97.60
51863;DHT22;37900;52.996;6.278;2023-01-06T12:51:25;16.40;97.60
51863;DHT22;37900;52.996;6.278;2023-01-06T12:54:11;16.40;97.60
51863;DHT22;37900;52.996;6.278;2023-01-06T13:10:40;16.40;97.40
51863;DHT22;37900;52.996;6.278;2023-01-06T13:22:00;16.40;97.30
51863;DHT22;37900;52.996;6.278;2023-01-06T13:24:48;16.30;97.30
51863;DHT22;37900;52.996;6.278;2023-01-06T13:27:32;16.30;97.30
51863;DHT22;37900;52.996;6.278;2023-01-06T13:30:28;16.30;97.30
51863;DHT22;37900;52.996;6.278;2023-01-06T13:36:03;16.40;97.40
51863;DHT22;37900;52.996;6.278;2023-01-06T13:41:20;16.40;97.40
51863;DHT22;37900;52.996;6.278;2023-01-06T13:43:48;16.40;97.40
51863;DHT22;37900;52.996;6.278;2023-01-06T13:46:16;16.40;97.30
51863;DHT22;37900;52.996;6.278;2023-01-06T13:49:04;16.40;97.30
51863;DHT22;37900;52.996;6.278;2023-01-06T13:51:35;16.40;97.20
51863;DHT22;37900;52.996;6.278;2023-01-06T13:54:02;16.40;97.20
51863;DHT22;37900;52.996;6.278;2023-01-06T13:56:32;16.40;97.20
51863;DHT22;37900;52.996;6.278;2023-01-06T13:59:21;16.40;97.20
51863;DHT22;37900;52.996;6.278;2023-01-06T14:01:47;16.40;97.20
51863;DHT22;37900;52.996;6.278;2023-01-06T14:06:56;16.40;97.10
51863;DHT22;37900;52.996;6.278;2023-01-06T14:09:23;16.40;97.10
51863;DHT22;37900;52.996;6.278;2023-01-06T14:11:49;16.40;97.10
51863;DHT22;37900;52.996;6.278;2023-01-06T14:14:26;16.30;97.00
51863;DHT22;37900;52.996;6.278;2023-01-06T14:16:55;16.40;97.00
51863;DHT22;37900;52.996;6.278;2023-01-06T14:19:22;16.40;97.00
51863;DHT22;37900;52.996;6.278;2023-01-06T14:21:52;16.40;97.00
51863;DHT22;37900;52.996;6.278;2023-01-06T14:24:28;16.30;97.00
51863;DHT22;37900;52.996;6.278;2023-01-06T14:26:58;16.30;97.00
51863;DHT22;37900;52.996;6.278;2023-01-06T14:34:37;16.30;96.90
51863;DHT22;37900;52.996;6.278;2023-01-06T14:37:04;16.30;96.90
51863;DHT22;37900;52.996;6.278;2023-01-06T14:39:37;16.30;96.90
51863;DHT22;37900;52.996;6.278;2023-01-06T14:42:12;16.30;96.90
51863;DHT22;37900;52.996;6.278;2023-01-06T14:45:02;16.30;96.80
51863;DHT22;37900;52.996;6.278;2023-01-06T14:47:33;16.30;96.80
51863;DHT22;37900;52.996;6.278;2023-01-06T14:52:36;16.30;96.80
51863;DHT22;37900;52.996;6.278;2023-01-06T14:55:09;16.30;96.80
51863;DHT22;37900;52.996;6.278;2023-01-06T14:57:36;16.30;96.70
51863;DHT22;37900;52.996;6.278;2023-01-06T15:00:25;16.30;96.80
51863;DHT22;37900;52.996;6.278;2023-01-06T15:03:03;16.30;96.80
51863;DHT22;37900;52.996;6.278;2023-01-06T15:05:37;16.30;96.90
51863;DHT22;37900;52.996;6.278;2023-01-06T15:08:06;16.30;96.80
51863;DHT22;37900;52.996;6.278;2023-01-06T15:10:35;16.40;96.80
51863;DHT22;37900;52.996;6.278;2023-01-06T15:13:13;16.30;96.80
51863;DHT22;37900;52.996;6.278;2023-01-06T15:15:43;16.40;97.10
51863;DHT22;37900;52.996;6.278;2023-01-06T15:18:10;16.40;96.80
51863;DHT22;37900;52.996;6.278;2023-01-06T15:20:42;16.40;96.80
51863;DHT22;37900;52.996;6.278;2023-01-06T15:23:14;16.40;96.80
51863;DHT22;37900;52.996;6.278;2023-01-06T15:25:41;16.40;96.80
51863;DHT22;37900;52.996;6.278;2023-01-06T15:30:49;16.40;96.90
51863;DHT22;37900;52.996;6.278;2023-01-06T15:33:15;16.40;97.00
51863;DHT22;37900;52.996;6.278;2023-01-06T15:35:42;16.40;97.10
51863;DHT22;37900;52.996;6.278;2023-01-06T15:38:28;16.40;97.20
51863;DHT22;37900;52.996;6.278;2023-01-06T15:40:55;16.40;97.40
51863;DHT22;37900;52.996;6.278;2023-01-06T15:43:23;16.40;97.70
51863;DHT22;37900;52.996;6.278;2023-01-06T15:45:59;16.50;97.80
51863;DHT22;37900;52.996;6.278;2023-01-06T15:48:28;16.50;98.10
51863;DHT22;37900;52.996;6.278;2023-01-06T15:50:55;16.50;98.10
51863;DHT22;37900;52.996;6.278;2023-01-06T15:53:23;16.60;98.20
51863;DHT22;37900;52.996;6.278;2023-01-06T15:55:52;16.60;98.30
51863;DHT22;37900;52.996;6.278;2023-01-06T15:58:23;16.60;98.30
51863;DHT22;37900;52.996;6.278;2023-01-06T16:03:53;16.70;98.30
51863;DHT22;37900;52.996;6.278;2023-01-06T16:06:32;16.70;98.30
51863;DHT22;37900;52.996;6.278;2023-01-06T16:14:36;16.70;98.20
51863;DHT22;37900;52.996;6.278;2023-01-06T16:19:34;16.60;98.30
51863;DHT22;37900;52.996;6.278;2023-01-06T16:22:05;16.60;98.40
51863;DHT22;37900;52.996;6.278;2023-01-06T16:24:32;16.60;98.40
51863;DHT22;37900;52.996;6.278;2023-01-06T16:27:04;16.60;98.50
51863;DHT22;37900;52.996;6.278;2023-01-06T16:29:37;16.60;98.60
51863;DHT22;37900;52.996;6.278;2023-01-06T16:32:29;16.60;98.60
51863;DHT22;37900;52.996;6.278;2023-01-06T16:35:05;16.70;98.70
51863;DHT22;37900;52.996;6.278;2023-01-06T16:37:32;16.70;98.70
51863;DHT22;37900;52.996;6.278;2023-01-06T16:39:58;16.70;98.70
51863;DHT22;37900;52.996;6.278;2023-01-06T16:47:43;16.80;98.70
51863;DHT22;37900;52.996;6.278;2023-01-06T16:53:09;16.80;98.60
51863;DHT22;37900;52.996;6.278;2023-01-06T16:55:37;16.70;98.60
51863;DHT22;37900;52.996;6.278;2023-01-06T16:58:18;16.80;98.50
51863;DHT22;37900;52.996;6.278;2023-01-06T17:00:46;16.80;98.50
51863;DHT22;37900;52.996;6.278;2023-01-06T17:03:24;16.70;98.60
51863;DHT22;37900;52.996;6.278;2023-01-06T17:05:51;16.70;98.60
51863;DHT22;37900;52.996;6.278;2023-01-06T17:08:24;16.70;98.60
51863;DHT22;37900;52.996;6.278;2023-01-06T17:10:50;16.70;98.60
51863;DHT22;37900;52.996;6.278;2023-01-06T17:13:16;16.70;98.60
51863;DHT22;37900;52.996;6.278;2023-01-06T17:18:48;16.70;98.60
51863;DHT22;37900;52.996;6.278;2023-01-06T17:21:17;16.80;98.60
51863;DHT22;37900;52.996;6.278;2023-01-06T17:23:57;16.80;98.60
51863;DHT22;37900;52.996;6.278;2023-01-06T17:26:25;16.80;98.60
51863;DHT22;37900;52.996;6.278;2023-01-06T17:28:51;16.80;98.60
51863;DHT22;37900;52.996;6.278;2023-01-06T17:31:35;16.80;98.60
51863;DHT22;37900;52.996;6.278;2023-01-06T17:34:22;16.80;98.50
51863;DHT22;37900;52.996;6.278;2023-01-06T17:36:50;16.80;98.50
51863;DHT22;37900;52.996;6.278;2023-01-06T17:39:22;16.80;98.50
51863;DHT22;37900;52.996;6.278;2023-01-06T17:42:02;16.80;98.60
51863;DHT22;37900;52.996;6.278;2023-01-06T17:44:49;16.80;98.60
51863;DHT22;37900;52.996;6.278;2023-01-06T17:50:16;16.80;98.70
51863;DHT22;37900;52.996;6.278;2023-01-06T17:52:43;16.70;98.90
51863;DHT22;37900;52.996;6.278;2023-01-06T17:55:42;16.70;98.90
51863;DHT22;37900;52.996;6.278;2023-01-06T17:58:14;16.70;99.00
51863;DHT22;37900;52.996;6.278;2023-01-06T18:00:41;16.80;99.00
51863;DHT22;37900;52.996;6.278;2023-01-06T18:03:27;16.80;98.90
51863;DHT22;37900;52.996;6.278;2023-01-06T18:06:17;16.80;99.00
51863;DHT22;37900;52.996;6.278;2023-01-06T18:08:44;16.80;98.90
51863;DHT22;37900;52.996;6.278;2023-01-06T18:13:40;16.80;98.80
51863;DHT22;37900;52.996;6.278;2023-01-06T18:16:30;16.90;98.80
51863;DHT22;37900;52.996;6.278;2023-01-06T18:19:13;16.80;98.60